Time;durP1;ratioP1;P1;durP2;ratioP2;P2;SDS_P1;SDS_P2;PMS_P1;PMS_P2;Temp;Humidity;BMP_temperature;BMP_pressure;BME280_temperature;BME280_humidity;BME280_pressure;Samples;Min_cycle;Max_cycle;Signal;HPM_P1;HPM_P2
2023/01/10 00:17:43;;;;;;;48.80;26.03;;;6.80;99.90;;;;;;5772918;24;20199;-83
2023/01/10 00:58:16;;;;;;;62.87;29.67;;;6.70;99.90;;;;;;5915465;23;20859;-84
2023/01/10 01:54:00;;;;;;;62.47;30.73;;;6.70;99.90;;;;;;5730268;24;20165;-83
2023/01/10 02:34:34;;;;;;;67.97;33.00;;;6.70;99.90;;;;;;5728895;24;20177;-81
2023/01/10 03:25:16;;;;;;;63.10;30.03;;;6.80;99.90;;;;;;5739670;24;20201;-80
2023/01/10 03:55:07;;;;;;;56.47;29.27;;;6.80;99.90;;;;;;5685968;24;20534;-81
2023/01/10 04:15:50;;;;;;;52.37;26.13;;;6.80;99.90;;;;;;5783464;24;20223;-81
2023/01/10 04:36:22;;;;;;;52.03;26.00;;;6.80;99.90;;;;;;5700067;24;20642;-84
2023/01/10 06:11:58;;;;;;;76.03;31.67;;;6.80;99.90;;;;;;5935160;23;20215;-82
2023/01/10 06:37:07;;;;;;;79.77;29.37;;;6.70;99.90;;;;;;5863689;23;20298;-81
2023/01/10 07:48:12;;;;;;;65.87;31.20;;;6.80;99.90;;;;;;5945721;23;20215;-81
2023/01/10 08:12:59;;;;;;;59.53;29.47;;;6.90;99.90;;;;;;5565892;24;20885;-82
2023/01/10 08:39:02;;;;;;;65.93;28.77;;;6.80;99.90;;;;;;5693470;24;20260;-80
2023/01/10 08:59:20;;;;;;;55.43;28.83;;;6.80;99.90;;;;;;5925132;23;20573;-83
2023/01/10 09:19:13;;;;;;;57.13;29.13;;;6.80;99.90;;;;;;5614920;24;20619;-82
2023/01/10 10:00:07;;;;;;;52.10;26.70;;;6.80;99.90;;;;;;5916223;23;20180;-83
2023/01/10 11:21:14;;;;;;;49.83;28.13;;;6.90;99.90;;;;;;5715924;24;20677;-83
2023/01/10 11:41:30;;;;;;;50.23;25.43;;;6.80;99.90;;;;;;5717160;24;20182;-84
2023/01/10 12:12:02;;;;;;;41.50;22.33;;;7.00;99.90;;;;;;5771737;24;20219;-80
2023/01/10 12:37:29;;;;;;;37.20;21.40;;;6.90;99.90;;;;;;5764994;24;20597;-81
2023/01/10 13:02:28;;;;;;;38.70;21.60;;;6.90;99.90;;;;;;5826370;24;20527;-84
2023/01/10 13:22:50;;;;;;;32.63;18.70;;;7.10;99.90;;;;;;5535728;25;20779;-82
2023/01/10 13:57:59;;;;;;;37.77;24.23;;;6.90;99.90;;;;;;5499351;25;20851;-82
2023/01/10 14:08:24;;;;;;;36.63;18.97;;;6.80;99.90;;;;;;5996932;23;20575;31
2023/01/10 14:58:58;;;;;;;35.27;20.07;;;6.80;99.90;;;;;;6000191;23;20400;-82
2023/01/10 15:24:33;;;;;;;28.53;17.80;;;6.70;99.90;;;;;;5908171;24;20163;-81
2023/01/10 15:54:35;;;;;;;27.50;14.33;;;6.50;99.60;;;;;;5629499;25;20205;-84
2023/01/10 16:45:43;;;;;;;34.20;19.43;;;6.20;99.90;;;;;;6069537;23;20586;-84
2023/01/10 17:15:57;;;;;;;35.40;19.97;;;5.70;99.90;;;;;;5961385;23;20211;-83
2023/01/10 17:36:37;;;;;;;33.90;18.77;;;5.80;99.90;;;;;;5799068;24;20189;-83
2023/01/10 18:27:10;;;;;;;31.70;16.70;;;5.80;97.80;;;;;;5790451;24;20244;-81
2023/01/10 18:47:15;;;;;;;31.53;15.57;;;5.80;96.10;;;;;;5856802;24;20304;-83
2023/01/10 19:17:58;;;;;;;27.10;15.10;;;5.90;94.40;;;;;;5717252;24;20229;-83
2023/01/10 20:08:32;;;;;;;24.23;13.60;;;5.60;94.10;;;;;;6002841;23;21007;-83
2023/01/10 20:43:45;;;;;;;25.93;14.80;;;5.10;96.40;;;;;;5882097;24;20188;-81
2023/01/10 21:09:22;;;;;;;45.37;27.20;;;4.10;99.90;;;;;;5939746;23;20230;-81
2023/01/10 21:34:11;;;;;;;71.07;35.23;;;3.20;99.90;;;;;;5574103;25;20626;-85
2023/01/10 22:00:03;;;;;;;70.27;33.90;;;3.20;99.90;;;;;;5643942;25;20281;-84
2023/01/10 22:40:37;;;;;;;59.70;27.13;;;2.70;99.90;;;;;;5838238;24;20569;-82
2023/01/10 23:31:15;;;;;;;58.30;22.97;;;2.80;99.90;;;;;;5750007;24;20222;-81
